createdAt,value
2019-01-18T00:00:24.175Z,0.06
2019-01-18T00:02:57.073Z,0.11
2019-01-18T00:05:29.654Z,0.12
2019-01-18T00:08:02.278Z,0.11
2019-01-18T00:10:34.806Z,0.10
2019-01-18T00:13:07.584Z,0.16
2019-01-18T00:15:40.198Z,-0.01
2019-01-18T00:18:12.816Z,-0.08
2019-01-18T00:20:45.478Z,0.02
2019-01-18T00:23:18.066Z,0.07
2019-01-18T00:25:50.757Z,0.08
2019-01-18T00:28:23.428Z,-0.08
2019-01-18T00:30:56.085Z,-0.14
2019-01-18T00:33:28.737Z,-0.26
2019-01-18T00:36:01.322Z,-0.32
2019-01-18T00:38:33.959Z,-0.26
2019-01-18T00:41:06.514Z,-0.24
2019-01-18T00:43:39.137Z,-0.27
2019-01-18T00:46:11.789Z,-0.36
2019-01-18T00:48:44.386Z,-0.31
2019-01-18T00:51:16.955Z,-0.20
2019-01-18T00:53:49.570Z,-0.22
2019-01-18T00:56:22.213Z,-0.17
2019-01-18T00:58:54.827Z,-0.18
2019-01-18T01:01:27.400Z,-0.27
2019-01-18T01:04:00.261Z,-0.32
2019-01-18T01:06:32.886Z,-0.30
2019-01-18T01:09:07.527Z,-0.21
2019-01-18T01:11:40.207Z,-0.19
2019-01-18T01:14:12.867Z,-0.17
2019-01-18T01:16:45.534Z,-0.17
2019-01-18T01:19:18.152Z,-0.19
2019-01-18T01:21:53.004Z,-0.20
2019-01-18T01:24:25.639Z,-0.19
2019-01-18T01:26:58.207Z,-0.20
2019-01-18T01:29:30.875Z,-0.18
2019-01-18T01:32:03.418Z,-0.19
2019-01-18T01:34:36.008Z,-0.15
2019-01-18T01:37:08.626Z,-0.11
2019-01-18T01:39:41.241Z,-0.15
2019-01-18T01:42:13.939Z,-0.14
2019-01-18T01:44:46.581Z,-0.17
2019-01-18T01:47:19.265Z,-0.15
2019-01-18T01:49:52.050Z,-0.09
2019-01-18T01:52:24.695Z,-0.17
2019-01-18T01:54:57.994Z,-0.15
2019-01-18T01:57:30.794Z,-0.11
2019-01-18T02:00:03.528Z,-0.13
2019-01-18T02:02:36.168Z,-0.08
2019-01-18T02:05:09.071Z,-0.21
2019-01-18T02:07:41.752Z,-0.36
2019-01-18T02:10:15.920Z,-0.38
2019-01-18T02:12:48.815Z,-0.43
2019-01-18T02:15:24.927Z,-0.56
2019-01-18T02:17:57.601Z,-0.65
2019-01-18T02:20:30.381Z,-0.75
2019-01-18T02:23:03.051Z,-0.73
2019-01-18T02:25:37.747Z,-0.81
2019-01-18T02:28:10.496Z,-0.82
2019-01-18T02:30:43.085Z,-0.82
2019-01-18T02:33:15.761Z,-0.93
2019-01-18T02:35:48.406Z,-1.17
2019-01-18T02:38:21.037Z,-1.50
2019-01-18T02:40:53.581Z,-1.61
2019-01-18T02:43:26.186Z,-1.73
2019-01-18T02:46:00.372Z,-1.61
2019-01-18T02:48:33.053Z,-1.70
2019-01-18T02:51:05.719Z,-1.99
2019-01-18T02:53:38.299Z,-2.27
2019-01-18T02:56:10.990Z,-2.41
2019-01-18T02:58:43.551Z,-2.10
2019-01-18T03:01:16.146Z,-2.00
2019-01-18T03:03:48.711Z,-1.97
2019-01-18T03:06:21.293Z,-2.07
2019-01-18T03:08:53.841Z,-2.21
2019-01-18T03:11:26.416Z,-2.47
2019-01-18T03:13:58.987Z,-2.51
2019-01-18T03:16:31.572Z,-2.45
2019-01-18T03:19:04.113Z,-2.45
2019-01-18T03:21:36.749Z,-2.51
2019-01-18T03:24:09.431Z,-2.60
2019-01-18T03:26:42.022Z,-2.70
2019-01-18T03:29:14.600Z,-2.73
2019-01-18T03:31:47.147Z,-2.78
2019-01-18T03:34:19.846Z,-2.96
2019-01-18T03:36:52.420Z,-3.14
2019-01-18T03:39:25.067Z,-3.13
2019-01-18T03:41:57.779Z,-3.28
2019-01-18T03:44:30.371Z,-3.14
2019-01-18T03:47:03.040Z,-3.23
2019-01-18T03:49:35.636Z,-3.22
2019-01-18T03:52:08.346Z,-3.23
2019-01-18T03:54:40.998Z,-3.45
2019-01-18T03:57:13.659Z,-3.57
2019-01-18T03:59:46.311Z,-3.78
2019-01-18T04:02:18.970Z,-3.86
2019-01-18T04:04:51.583Z,-3.94
2019-01-18T04:07:24.268Z,-3.95
2019-01-18T04:09:56.907Z,-4.05
2019-01-18T04:12:29.502Z,-4.15
2019-01-18T04:15:02.167Z,-4.29
2019-01-18T04:17:34.807Z,-4.18
2019-01-18T04:20:09.421Z,-4.08
2019-01-18T04:22:41.975Z,-4.03
2019-01-18T04:25:18.153Z,-4.00
2019-01-18T04:27:50.892Z,-4.12
2019-01-18T04:30:24.312Z,-3.95
2019-01-18T04:32:57.004Z,-3.99
2019-01-18T04:35:29.650Z,-4.03
2019-01-18T04:38:02.211Z,-4.21
2019-01-18T04:40:34.917Z,-4.27
2019-01-18T04:43:07.500Z,-4.14
2019-01-18T04:45:40.122Z,-4.36
2019-01-18T04:48:12.766Z,-4.53
2019-01-18T04:50:45.417Z,-4.58
2019-01-18T04:53:18.084Z,-4.71
2019-01-18T04:55:53.657Z,-4.71
2019-01-18T04:58:26.663Z,-4.63
2019-01-18T05:00:59.362Z,-4.64
2019-01-18T05:03:31.966Z,-4.50
2019-01-18T05:06:04.986Z,-4.24
2019-01-18T05:08:37.600Z,-4.30
2019-01-18T05:11:10.161Z,-4.40
2019-01-18T05:13:42.957Z,-4.28
2019-01-18T05:16:15.670Z,-4.30
2019-01-18T05:18:48.354Z,-4.31
2019-01-18T05:21:20.981Z,-4.27
2019-01-18T05:23:53.571Z,-4.26
2019-01-18T05:26:26.129Z,-4.01
2019-01-18T05:28:58.777Z,-4.10
2019-01-18T05:31:31.418Z,-4.18
2019-01-18T05:34:04.001Z,-4.36
2019-01-18T05:36:36.559Z,-4.35
2019-01-18T05:39:09.304Z,-4.32
2019-01-18T05:41:41.869Z,-4.23
2019-01-18T05:44:14.429Z,-4.36
2019-01-18T05:46:47.672Z,-4.26
2019-01-18T05:49:20.248Z,-4.37
2019-01-18T05:51:52.896Z,-4.46
2019-01-18T05:54:25.652Z,-4.49
2019-01-18T05:56:58.334Z,-4.64
2019-01-18T05:59:30.949Z,-4.75
2019-01-18T06:02:05.247Z,-4.77
2019-01-18T06:04:37.948Z,-4.83
2019-01-18T06:07:10.673Z,-4.85
2019-01-18T06:09:43.238Z,-4.80
2019-01-18T06:12:15.970Z,-4.88
2019-01-18T06:14:48.792Z,-4.89
2019-01-18T06:17:21.345Z,-4.95
2019-01-18T06:19:54.023Z,-4.95
2019-01-18T06:22:26.650Z,-4.97
2019-01-18T06:24:59.319Z,-5.12
2019-01-18T06:27:32.373Z,-5.46
2019-01-18T06:30:06.395Z,-5.45
2019-01-18T06:32:39.027Z,-5.42
2019-01-18T06:35:11.839Z,-5.46
2019-01-18T06:37:44.918Z,-5.72
2019-01-18T06:40:17.897Z,-5.66
2019-01-18T06:42:50.792Z,-5.63
2019-01-18T06:45:24.511Z,-5.58
2019-01-18T06:47:57.151Z,-5.56
2019-01-18T06:50:30.165Z,-5.62
2019-01-18T06:53:02.922Z,-5.53
2019-01-18T06:55:35.548Z,-5.48
2019-01-18T06:58:08.277Z,-5.58
2019-01-18T07:00:40.930Z,-5.72
2019-01-18T07:03:13.548Z,-5.96
2019-01-18T07:05:46.315Z,-5.88
2019-01-18T07:08:21.657Z,-5.79
2019-01-18T07:10:54.359Z,-5.78
2019-01-18T07:13:27.120Z,-5.79
2019-01-18T07:16:00.799Z,-5.79
2019-01-18T07:18:33.398Z,-5.61
2019-01-18T07:21:06.129Z,-5.64
2019-01-18T07:23:38.872Z,-5.61
2019-01-18T07:26:11.560Z,-5.64
2019-01-18T07:28:44.216Z,-5.74
2019-01-18T07:31:16.992Z,-5.93
2019-01-18T07:33:49.664Z,-5.97
2019-01-18T07:36:22.279Z,-5.95
2019-01-18T07:39:00.467Z,-5.86
2019-01-18T07:41:29.478Z,-5.87
2019-01-18T07:44:02.063Z,-5.83
2019-01-18T07:46:34.757Z,-5.76
2019-01-18T07:49:07.403Z,-5.74
2019-01-18T07:51:40.110Z,-5.77
2019-01-18T07:54:12.721Z,-5.70
2019-01-18T07:56:45.428Z,-5.59
2019-01-18T07:59:17.991Z,-5.54
2019-01-18T08:01:50.608Z,-5.63
2019-01-18T08:04:23.183Z,-5.57
2019-01-18T08:06:55.891Z,-5.56
2019-01-18T08:09:28.466Z,-5.57
2019-01-18T08:12:01.189Z,-5.68
2019-01-18T08:14:33.975Z,-5.67
2019-01-18T08:17:06.561Z,-5.61
2019-01-18T08:19:39.208Z,-5.54
2019-01-18T08:22:12.008Z,-4.68
2019-01-18T08:24:44.610Z,-3.41
2019-01-18T08:27:17.183Z,-2.70
2019-01-18T08:29:49.870Z,-1.88
2019-01-18T08:32:22.501Z,-1.35
2019-01-18T08:34:55.125Z,-0.50
2019-01-18T08:37:27.681Z,1.25
2019-01-18T08:40:00.223Z,1.49
2019-01-18T08:42:32.805Z,2.07
2019-01-18T08:45:06.820Z,1.97
2019-01-18T08:47:39.468Z,2.96
2019-01-18T08:50:14.861Z,2.92
2019-01-18T08:52:47.506Z,2.70
2019-01-18T08:55:20.205Z,2.25
2019-01-18T08:57:55.848Z,4.14
2019-01-18T09:00:28.775Z,4.96
2019-01-18T09:03:01.519Z,5.19
2019-01-18T09:05:34.414Z,5.13
2019-01-18T09:08:07.259Z,7.05
2019-01-18T09:10:39.979Z,6.26
2019-01-18T09:13:12.567Z,8.23
2019-01-18T09:15:45.132Z,8.49
2019-01-18T09:18:17.834Z,7.75
2019-01-18T09:20:50.370Z,8.52
2019-01-18T09:23:22.908Z,5.57
2019-01-18T09:25:55.498Z,6.51
2019-01-18T09:28:28.160Z,6.27
2019-01-18T09:31:00.701Z,6.30
2019-01-18T09:33:33.329Z,5.50
2019-01-18T09:36:06.071Z,4.91
2019-01-18T09:38:38.661Z,6.27
2019-01-18T09:41:11.376Z,5.12
2019-01-18T09:43:44.005Z,4.82
2019-01-18T09:46:16.554Z,4.23
2019-01-18T09:48:49.124Z,4.98
2019-01-18T09:51:21.699Z,4.59
2019-01-18T09:53:54.363Z,5.04
2019-01-18T09:56:26.978Z,5.73
2019-01-18T09:58:59.683Z,5.62
2019-01-18T10:01:32.223Z,5.29
2019-01-18T10:04:04.824Z,5.54
2019-01-18T10:06:37.451Z,5.82
2019-01-18T10:09:10.413Z,4.52
2019-01-18T10:11:44.170Z,5.24
2019-01-18T10:14:16.788Z,5.46
2019-01-18T10:16:49.354Z,5.38
2019-01-18T10:19:22.022Z,5.19
2019-01-18T10:21:54.562Z,5.30
2019-01-18T10:24:27.134Z,4.87
2019-01-18T10:26:59.768Z,5.82
2019-01-18T10:29:33.480Z,6.16
2019-01-18T10:32:06.200Z,6.45
2019-01-18T10:34:38.866Z,6.40
2019-01-18T10:37:11.522Z,6.33
2019-01-18T10:39:44.114Z,6.29
2019-01-18T10:42:16.794Z,7.69
2019-01-18T10:44:49.384Z,8.40
2019-01-18T10:47:21.974Z,7.88
2019-01-18T10:49:54.764Z,7.40
2019-01-18T10:52:27.446Z,8.54
2019-01-18T10:55:00.175Z,7.24
2019-01-18T10:57:32.742Z,7.01
2019-01-18T11:00:08.249Z,5.65
2019-01-18T11:02:40.945Z,5.43
2019-01-18T11:05:13.898Z,6.96
2019-01-18T11:07:46.560Z,8.05
2019-01-18T11:10:19.302Z,6.98
2019-01-18T11:12:54.827Z,5.76
2019-01-18T11:15:46.509Z,5.03
2019-01-18T11:18:19.122Z,5.71
2019-01-18T11:21:09.554Z,4.98
2019-01-18T11:23:42.182Z,5.74
2019-01-18T11:26:14.868Z,5.17
2019-01-18T11:28:47.488Z,5.41
2019-01-18T11:31:23.379Z,5.71
2019-01-18T11:33:54.487Z,5.30
2019-01-18T11:36:27.139Z,6.81
2019-01-18T11:38:59.805Z,5.98
2019-01-18T11:41:32.462Z,6.18
2019-01-18T11:44:05.781Z,5.87
2019-01-18T11:46:38.383Z,6.93
2019-01-18T11:49:11.089Z,8.39
2019-01-18T11:51:43.806Z,8.56
2019-01-18T11:54:16.415Z,7.10
2019-01-18T11:56:49.152Z,6.69
2019-01-18T11:59:21.787Z,7.18
2019-01-18T12:01:54.390Z,5.50
2019-01-18T12:04:27.118Z,6.85
2019-01-18T12:06:59.820Z,6.75
2019-01-18T12:09:32.587Z,7.57
2019-01-18T12:12:05.221Z,7.83
2019-01-18T12:14:37.794Z,7.17
2019-01-18T12:17:10.414Z,6.16
2019-01-18T12:19:43.103Z,7.02
2019-01-18T12:22:15.752Z,7.34
2019-01-18T12:24:48.314Z,7.70
2019-01-18T12:27:20.976Z,7.73
2019-01-18T12:29:53.559Z,6.83
2019-01-18T12:32:28.801Z,7.59
2019-01-18T12:35:00.712Z,6.42
2019-01-18T12:37:33.593Z,5.96
2019-01-18T12:40:06.437Z,6.67
2019-01-18T12:42:39.159Z,4.92
2019-01-18T12:45:16.512Z,5.77
2019-01-18T12:47:49.156Z,6.18
2019-01-18T12:50:35.883Z,6.42
2019-01-18T12:53:09.078Z,7.17
2019-01-18T12:55:41.721Z,7.38
2019-01-18T12:58:14.465Z,6.65
2019-01-18T13:00:47.057Z,6.18
2019-01-18T13:03:19.653Z,6.41
2019-01-18T13:05:54.229Z,6.53
2019-01-18T13:08:26.927Z,6.38
2019-01-18T13:11:02.727Z,6.17
2019-01-18T13:13:35.303Z,6.51
2019-01-18T13:16:33.950Z,5.60
2019-01-18T13:19:28.937Z,5.21
2019-01-18T13:22:01.582Z,4.95
2019-01-18T13:24:34.294Z,4.96
2019-01-18T13:27:06.975Z,4.71
2019-01-18T13:29:39.624Z,5.16
2019-01-18T13:32:12.236Z,5.27
2019-01-18T13:34:44.875Z,4.75
2019-01-18T13:37:17.619Z,4.27
2019-01-18T13:39:50.223Z,4.39
2019-01-18T13:42:23.080Z,3.58
2019-01-18T13:44:55.761Z,3.84
2019-01-18T13:47:28.437Z,3.43
2019-01-18T13:50:03.289Z,3.31
2019-01-18T13:52:36.005Z,3.02
2019-01-18T13:55:15.129Z,2.69
2019-01-18T13:57:47.854Z,2.27
2019-01-18T14:00:20.593Z,2.01
2019-01-18T14:02:53.316Z,1.97
2019-01-18T14:05:26.019Z,1.84
2019-01-18T14:07:59.126Z,1.64
2019-01-18T14:10:31.814Z,1.61
2019-01-18T14:13:04.514Z,1.55
2019-01-18T14:15:37.102Z,1.48
2019-01-18T14:18:09.864Z,1.54
2019-01-18T14:20:42.718Z,1.63
2019-01-18T14:23:15.411Z,1.71
2019-01-18T14:25:48.231Z,1.65
2019-01-18T14:28:21.052Z,1.55
2019-01-18T14:30:53.695Z,1.62
2019-01-18T14:33:26.442Z,1.74
2019-01-18T14:35:59.136Z,1.77
2019-01-18T14:38:31.906Z,1.99
2019-01-18T14:41:04.684Z,1.97
2019-01-18T14:43:37.295Z,1.87
2019-01-18T14:46:09.935Z,1.65
2019-01-18T14:48:42.502Z,1.51
2019-01-18T14:51:15.084Z,1.39
2019-01-18T14:53:47.665Z,1.55
2019-01-18T14:56:22.687Z,1.43
2019-01-18T14:58:55.260Z,1.35
2019-01-18T15:01:27.922Z,1.36
2019-01-18T15:04:01.640Z,1.22
2019-01-18T15:06:34.332Z,1.12
2019-01-18T15:09:12.046Z,1.11
2019-01-18T15:11:44.648Z,1.03
2019-01-18T15:14:17.329Z,0.96
2019-01-18T15:16:49.909Z,0.94
2019-01-18T15:19:22.564Z,0.92
2019-01-18T15:21:55.287Z,0.80
2019-01-18T15:24:27.915Z,0.73
2019-01-18T15:27:00.582Z,0.66
2019-01-18T15:29:33.174Z,0.57
2019-01-18T15:32:05.823Z,0.49
2019-01-18T15:34:38.599Z,0.38
2019-01-18T15:37:11.304Z,0.36
2019-01-18T15:39:44.059Z,0.36
2019-01-18T15:42:16.664Z,0.33
2019-01-18T15:44:49.287Z,0.23
2019-01-18T15:47:21.918Z,0.11
2019-01-18T15:49:54.623Z,0.09
2019-01-18T15:52:27.365Z,0.00
2019-01-18T15:55:00.233Z,0.03
2019-01-18T15:57:32.865Z,-0.01
2019-01-18T16:00:08.856Z,-0.07
2019-01-18T16:02:41.535Z,-0.13
2019-01-18T16:05:14.194Z,-0.12
2019-01-18T16:07:46.766Z,-0.18
2019-01-18T16:10:19.697Z,-0.26
2019-01-18T16:12:52.357Z,-0.18
2019-01-18T16:15:32.603Z,-0.22
2019-01-18T16:18:10.227Z,-0.22
2019-01-18T16:20:42.867Z,-0.34
2019-01-18T16:23:15.530Z,-0.38
2019-01-18T16:25:48.163Z,-0.42
2019-01-18T16:28:20.854Z,-0.43
2019-01-18T16:30:53.562Z,-0.49
2019-01-18T16:33:28.030Z,-0.54
2019-01-18T16:36:00.625Z,-0.55
2019-01-18T16:38:33.300Z,-0.56
2019-01-18T16:41:05.934Z,-0.55
2019-01-18T16:43:43.278Z,-0.61
2019-01-18T16:46:16.270Z,-0.55
2019-01-18T16:48:48.968Z,-0.62
2019-01-18T16:51:21.543Z,-0.73
2019-01-18T16:53:54.315Z,-0.78
2019-01-18T16:56:26.954Z,-0.81
2019-01-18T16:58:59.746Z,-0.82
2019-01-18T17:01:32.487Z,-0.82
2019-01-18T17:04:05.122Z,-0.94
2019-01-18T17:06:37.756Z,-0.92
2019-01-18T17:09:11.041Z,-0.94
2019-01-18T17:11:43.674Z,-0.90
2019-01-18T17:14:16.265Z,-1.15
2019-01-18T17:16:48.847Z,-1.22
2019-01-18T17:19:21.553Z,-1.30
2019-01-18T17:21:54.257Z,-1.32
2019-01-18T17:24:26.937Z,-1.44
2019-01-18T17:27:00.562Z,-1.50
2019-01-18T17:29:33.236Z,-1.60
2019-01-18T17:32:05.821Z,-1.68
2019-01-18T17:34:38.464Z,-1.75
2019-01-18T17:37:24.169Z,-1.79
2019-01-18T17:40:26.085Z,-1.83
2019-01-18T17:44:06.884Z,-1.81
2019-01-18T17:47:04.226Z,-1.99
2019-01-18T17:50:44.053Z,-1.97
2019-01-18T17:54:14.279Z,-2.07
2019-01-18T17:57:16.733Z,-1.96
2019-01-18T18:01:06.340Z,-1.92
2019-01-18T18:04:42.056Z,-1.99
2019-01-18T18:08:19.662Z,-2.13
2019-01-18T18:12:02.560Z,-2.08
2019-01-18T18:15:29.832Z,-1.96
2019-01-18T18:18:34.290Z,-1.96
2019-01-18T18:22:20.689Z,-2.05
2019-01-18T18:25:46.811Z,-1.98
2019-01-18T18:29:25.313Z,-2.04
2019-01-18T18:33:00.550Z,-2.26
2019-01-18T18:36:30.457Z,-2.41
2019-01-18T18:39:59.576Z,-2.51
2019-01-18T18:43:07.326Z,-2.49
2019-01-18T18:46:57.979Z,-2.62
2019-01-18T18:50:37.967Z,-2.71
2019-01-18T18:54:24.532Z,-2.69
2019-01-18T18:57:35.538Z,-2.45
2019-01-18T19:01:03.800Z,-2.65
2019-01-18T19:04:37.568Z,-2.70
2019-01-18T19:08:06.097Z,-2.69
2019-01-18T19:11:46.405Z,-2.77
2019-01-18T19:15:09.578Z,-2.77
2019-01-18T19:18:13.449Z,-2.92
2019-01-18T19:21:46.298Z,-2.95
2019-01-18T19:24:57.926Z,-3.05
2019-01-18T19:28:12.590Z,-3.11
2019-01-18T19:31:17.290Z,-3.12
2019-01-18T19:34:36.761Z,-3.18
2019-01-18T19:38:08.381Z,-3.16
2019-01-18T19:41:50.297Z,-3.13
2019-01-18T19:45:20.831Z,-3.26
2019-01-18T19:48:38.815Z,-3.39
2019-01-18T19:52:04.133Z,-3.46
2019-01-18T19:55:13.631Z,-3.58
2019-01-18T19:58:43.468Z,-3.65
2019-01-18T20:02:40.792Z,-3.52
2019-01-18T20:06:01.448Z,-3.47
2019-01-18T20:09:42.179Z,-3.43
2019-01-18T20:13:41.048Z,-3.48
2019-01-18T20:16:50.408Z,-3.45
2019-01-18T20:20:11.209Z,-3.10
2019-01-18T20:24:01.723Z,-3.14
2019-01-18T20:27:40.434Z,-3.23
2019-01-18T20:31:09.320Z,-3.23
2019-01-18T20:34:18.865Z,-3.10
2019-01-18T20:37:23.541Z,-3.12
2019-01-18T20:40:59.782Z,-3.29
2019-01-18T20:44:23.872Z,-3.42
2019-01-18T20:47:43.293Z,-3.77
2019-01-18T20:51:01.295Z,-3.89
2019-01-18T20:54:17.794Z,-3.99
2019-01-18T20:57:55.400Z,-4.01
2019-01-18T21:01:11.870Z,-4.13
2019-01-18T21:04:51.813Z,-4.13
2019-01-18T21:08:26.947Z,-4.12
2019-01-18T21:12:17.377Z,-4.43
2019-01-18T21:15:35.750Z,-4.48
2019-01-18T21:18:48.737Z,-4.41
2019-01-18T21:22:38.485Z,-4.47
2019-01-18T21:25:54.255Z,-4.68
2019-01-18T21:28:45.912Z,-4.70
2019-01-18T21:32:33.159Z,-4.70
2019-01-18T21:35:54.570Z,-4.70
2019-01-18T21:39:17.622Z,-4.66
2019-01-18T21:42:39.691Z,-4.62
2019-01-18T21:46:24.437Z,-4.54
2019-01-18T21:49:23.111Z,-4.44
2019-01-18T21:52:50.427Z,-4.49
2019-01-18T21:56:09.710Z,-4.50
2019-01-18T21:59:16.624Z,-4.31
2019-01-18T22:02:45.218Z,-4.27
2019-01-18T22:05:58.036Z,-4.25
2019-01-18T22:09:29.274Z,-4.20
2019-01-18T22:12:25.908Z,-4.05
2019-01-18T22:16:09.982Z,-4.01
2019-01-18T22:19:42.064Z,-3.99
2019-01-18T22:22:36.038Z,-4.01
2019-01-18T22:25:37.588Z,-4.04
2019-01-18T22:29:15.121Z,-4.09
2019-01-18T22:32:22.780Z,-4.26
2019-01-18T22:35:31.469Z,-4.56
2019-01-18T22:39:07.336Z,-4.66
2019-01-18T22:42:25.859Z,-4.67
2019-01-18T22:45:51.350Z,-4.68
2019-01-18T22:49:09.751Z,-4.75
2019-01-18T22:52:29.303Z,-4.89
2019-01-18T22:56:09.307Z,-4.98
2019-01-18T22:59:50.953Z,-5.05
2019-01-18T23:03:11.066Z,-5.05
2019-01-18T23:06:20.073Z,-5.14
2019-01-18T23:09:52.491Z,-5.04
2019-01-18T23:13:04.027Z,-5.21
2019-01-18T23:15:57.187Z,-5.33
2019-01-18T23:19:16.473Z,-5.24
2019-01-18T23:22:33.366Z,-5.42
2019-01-18T23:25:17.986Z,-5.59
2019-01-18T23:28:37.278Z,-5.51
2019-01-18T23:31:26.412Z,-5.45
2019-01-18T23:34:18.716Z,-5.60
2019-01-18T23:37:13.084Z,-5.57
2019-01-18T23:40:35.930Z,-5.53
2019-01-18T23:44:02.185Z,-5.45
2019-01-18T23:47:24.029Z,-5.60
2019-01-18T23:50:58.134Z,-5.72
2019-01-18T23:53:48.354Z,-5.70
2019-01-18T23:57:09.619Z,-5.72
